Time;durP1;ratioP1;P1;durP2;ratioP2;P2;SDS_P1;SDS_P2;PMS_P1;PMS_P2;Temp;Humidity;BMP_temperature;BMP_pressure;BME280_temperature;BME280_humidity;BME280_pressure;Samples;Min_cycle;Max_cycle;Signal;HPM_P1;HPM_P2
2023/07/31 00:04:44;;;;;;;2.83;1.10;;;;;;;19.76;61.72;99928.00;10333889;28;20069;-75
2023/07/31 00:09:45;;;;;;;3.47;1.02;;;;;;;19.65;61.94;99924.97;10331819;28;20053;-72
2023/07/31 00:14:47;;;;;;;3.25;1.10;;;;;;;19.52;62.25;99921.09;10330930;28;20065;-69
2023/07/31 00:19:50;;;;;;;2.65;1.25;;;;;;;19.56;62.08;99930.50;10333033;28;20136;-70
2023/07/31 00:24:51;;;;;;;2.47;1.02;;;;;;;19.55;62.00;99928.81;10333056;28;20060;-71
2023/07/31 00:29:53;;;;;;;2.13;1.58;;;;;;;19.47;62.15;99936.19;10334072;28;20050;-72
2023/07/31 00:34:55;;;;;;;4.05;1.40;;;;;;;19.47;62.38;99928.94;10333346;28;20277;-73
2023/07/31 00:39:56;;;;;;;2.45;1.30;;;;;;;19.49;63.30;99913.38;10331915;28;20188;-76
2023/07/31 00:44:58;;;;;;;3.70;1.58;;;;;;;19.49;64.01;99918.78;10335221;28;20137;-73
2023/07/31 00:49:59;;;;;;;5.68;1.35;;;;;;;19.40;64.38;99901.88;10333084;28;20046;-72
2023/07/31 00:55:01;;;;;;;3.70;1.52;;;;;;;19.45;64.58;99908.56;10333107;28;20053;-75
2023/07/31 01:00:03;;;;;;;4.55;1.50;;;;;;;19.36;64.66;99907.84;10333132;28;20211;-75
2023/07/31 01:05:05;;;;;;;4.25;1.60;;;;;;;19.33;64.54;99909.03;10332203;28;20113;-74
2023/07/31 01:10:23;;;;;;;3.95;1.83;;;;;;;19.26;64.32;99910.84;10332305;28;20120;-73
2023/07/31 01:15:24;;;;;;;3.67;1.02;;;;;;;19.28;64.51;99906.09;10331455;28;20132;-76
2023/07/31 01:20:29;;;;;;;3.25;1.30;;;;;;;19.27;64.34;99899.00;10337469;28;20169;-73
2023/07/31 01:25:54;;;;;;;4.07;1.15;;;;;;;19.27;63.78;99890.91;10342947;28;20077;-70
2023/07/31 01:30:59;;;;;;;3.05;1.67;;;;;;;19.25;63.15;99892.97;10348646;28;20053;-76
2023/07/31 01:36:02;;;;;;;4.00;1.58;;;;;;;19.27;63.46;99895.47;10374511;28;20053;-76
2023/07/31 01:41:03;;;;;;;3.78;1.60;;;;;;;19.27;62.96;99879.28;10365142;28;20560;-74
2023/07/31 01:46:04;;;;;;;3.28;1.00;;;;;;;19.28;62.21;99865.59;10336789;28;20085;-75
2023/07/31 01:51:06;;;;;;;2.83;1.35;;;;;;;19.22;61.80;99858.28;10330171;28;20459;-73
2023/07/31 01:56:07;;;;;;;3.70;1.73;;;;;;;19.19;61.65;99864.88;10327115;28;20147;-73
2023/07/31 02:01:08;;;;;;;3.60;1.38;;;;;;;19.26;61.15;99854.19;10329641;28;20057;-72
2023/07/31 02:06:10;;;;;;;3.40;1.60;;;;;;;19.20;60.92;99852.22;10329522;28;20409;-74
2023/07/31 02:11:11;;;;;;;4.15;1.52;;;;;;;19.25;60.63;99850.63;10337034;28;20057;-77
2023/07/31 02:16:13;;;;;;;2.30;1.35;;;;;;;19.22;60.52;99845.59;10363239;28;20041;-71
2023/07/31 02:21:14;;;;;;;3.05;1.60;;;;;;;19.23;60.83;99843.75;10350530;28;20062;-72
2023/07/31 02:26:16;;;;;;;3.95;1.52;;;;;;;19.23;60.87;99843.75;10334817;28;20081;-71
2023/07/31 02:31:17;;;;;;;5.43;1.83;;;;;;;19.30;60.63;99839.25;10330484;28;20166;-72
2023/07/31 02:36:23;;;;;;;4.60;1.48;;;;;;;19.34;60.30;99848.66;10336144;28;20057;-73
2023/07/31 02:41:24;;;;;;;3.17;1.40;;;;;;;19.36;59.83;99841.19;10340932;28;20132;-76
2023/07/31 02:46:25;;;;;;;2.70;1.40;;;;;;;19.30;59.92;99843.84;10339312;28;20049;-73
2023/07/31 02:51:27;;;;;;;3.55;1.98;;;;;;;19.28;59.95;99844.03;10336853;28;20057;-71
2023/07/31 02:56:28;;;;;;;5.40;2.10;;;;;;;19.30;59.81;99841.97;10334526;28;20058;-74
2023/07/31 03:01:30;;;;;;;3.70;1.98;;;;;;;19.33;59.68;99852.38;10336527;28;20048;-74
2023/07/31 03:06:32;;;;;;;3.55;1.65;;;;;;;19.28;59.72;99857.50;10336020;28;20046;-76
2023/07/31 03:11:33;;;;;;;4.57;1.38;;;;;;;19.30;60.11;99851.94;10336659;28;20112;-72
2023/07/31 03:16:35;;;;;;;3.35;1.30;;;;;;;19.28;60.43;99844.03;10337330;28;20137;-74
2023/07/31 03:21:36;;;;;;;2.88;1.50;;;;;;;19.27;60.91;99853.13;10341061;28;20417;-74
2023/07/31 03:26:41;;;;;;;4.03;1.55;;;;;;;19.24;61.43;99848.13;10333072;28;20053;-71
2023/07/31 03:31:42;;;;;;;2.95;1.50;;;;;;;19.19;61.51;99839.78;10336230;28;20145;-70
2023/07/31 03:36:44;;;;;;;3.25;1.63;;;;;;;19.14;62.38;99831.41;10334209;28;20069;-72
2023/07/31 03:41:45;;;;;;;3.47;1.63;;;;;;;19.12;62.80;99850.47;10332225;28;20205;-71
2023/07/31 03:46:47;;;;;;;3.38;1.60;;;;;;;19.06;62.97;99849.34;10334691;28;20042;-70
2023/07/31 03:51:49;;;;;;;4.10;1.75;;;;;;;19.05;63.60;99854.94;10336832;28;20050;-73
2023/07/31 03:56:51;;;;;;;4.90;2.00;;;;;;;19.09;63.66;99850.84;10334453;28;20077;-72
2023/07/31 04:01:52;;;;;;;4.82;1.95;;;;;;;19.08;63.89;99855.41;10337532;28;20050;-71
2023/07/31 04:06:54;;;;;;;3.42;2.00;;;;;;;19.03;64.23;99857.81;10334951;28;20073;-72
2023/07/31 04:11:55;;;;;;;3.65;2.10;;;;;;;18.97;64.29;99850.50;10337873;28;20061;-72
2023/07/31 04:16:56;;;;;;;6.30;2.25;;;;;;;18.96;64.62;99848.84;10342612;28;20058;-77
2023/07/31 04:21:58;;;;;;;7.95;2.45;;;;;;;18.98;64.28;99827.91;10349387;28;20120;-73
2023/07/31 04:26:59;;;;;;;6.65;2.00;;;;;;;18.98;64.40;99833.28;10350795;28;20053;-77
2023/07/31 04:32:01;;;;;;;4.68;1.70;;;;;;;18.98;64.11;99829.78;10380933;28;20060;-76
2023/07/31 04:37:03;;;;;;;4.57;2.53;;;;;;;19.01;63.80;99827.53;10368097;28;20512;-72
2023/07/31 04:42:04;;;;;;;2.90;1.77;;;;;;;19.02;64.45;99823.81;10343272;28;20776;-72
2023/07/31 04:47:05;;;;;;;5.72;2.10;;;;;;;19.03;63.83;99820.06;10331107;28;20050;-71
2023/07/31 04:52:07;;;;;;;5.10;2.15;;;;;;;19.08;63.82;99825.75;10331622;28;20584;-76
2023/07/31 04:57:08;;;;;;;4.68;2.13;;;;;;;19.14;64.46;99826.84;10331319;28;20417;-72
2023/07/31 05:02:12;;;;;;;3.17;1.60;;;;;;;19.13;63.78;99818.94;10334137;28;20661;-71
2023/07/31 05:07:13;;;;;;;6.28;1.70;;;;;;;19.14;63.76;99826.00;10321281;28;20263;-74
2023/07/31 05:12:15;;;;;;;6.13;2.35;;;;;;;19.06;63.77;99819.69;10324446;28;20508;-74
2023/07/31 05:17:16;;;;;;;4.68;1.75;;;;;;;19.08;63.71;99811.44;10319803;28;21853;-78
2023/07/31 05:22:18;;;;;;;5.13;2.08;;;;;;;19.02;64.11;99817.56;10317685;28;20081;-74
2023/07/31 05:27:19;;;;;;;4.68;2.15;;;;;;;19.00;64.65;99825.84;10323041;28;20053;-75
2023/07/31 05:32:21;;;;;;;6.75;2.22;;;;;;;18.98;64.89;99827.06;10323266;28;20139;-76
2023/07/31 05:37:25;;;;;;;4.47;1.90;;;;;;;18.84;65.08;99815.22;10326845;28;20424;-79
2023/07/31 05:42:26;;;;;;;5.95;2.22;;;;;;;18.90;65.28;99818.06;10324346;28;20596;-77
2023/07/31 05:47:28;;;;;;;5.53;2.15;;;;;;;18.92;66.15;99803.56;10326034;28;20398;-75
2023/07/31 05:52:29;;;;;;;6.07;2.17;;;;;;;18.95;66.23;99806.72;10324167;28;20050;-77
2023/07/31 05:57:31;;;;;;;5.25;1.65;;;;;;;18.93;65.87;99810.59;10328552;28;20046;-75
2023/07/31 06:02:36;;;;;;;5.25;1.70;;;;;;;18.99;65.60;99801.75;10325188;28;20077;-74
2023/07/31 06:07:37;;;;;;;3.20;1.83;;;;;;;19.06;66.61;99802.69;10319523;28;20075;-74
2023/07/31 06:12:39;;;;;;;5.18;2.40;;;;;;;18.99;65.62;99802.63;10324196;28;20500;-72
2023/07/31 06:17:41;;;;;;;3.70;2.22;;;;;;;19.03;65.34;99792.28;10320847;28;20128;-79
2023/07/31 06:22:42;;;;;;;5.47;2.17;;;;;;;19.06;65.42;99791.88;10315889;28;20252;-73
2023/07/31 06:27:44;;;;;;;3.28;1.70;;;;;;;18.97;64.89;99793.03;10322223;28;20054;-75
2023/07/31 06:32:45;;;;;;;6.10;2.05;;;;;;;19.01;64.75;99803.25;10320408;28;20478;-75
2023/07/31 06:37:47;;;;;;;4.40;2.13;;;;;;;19.09;64.62;99791.50;10318475;28;20393;-75
2023/07/31 06:42:48;;;;;;;5.97;1.75;;;;;;;19.15;64.60;99773.72;10319104;28;20045;-77
2023/07/31 06:47:49;;;;;;;2.72;2.00;;;;;;;19.16;64.33;99799.69;10324916;28;20065;-75
2023/07/31 06:52:51;;;;;;;5.13;2.38;;;;;;;19.17;64.15;99791.41;10324915;28;20050;-76
2023/07/31 06:57:54;;;;;;;3.92;1.90;;;;;;;19.14;64.10;99815.22;10326543;28;20083;-74
2023/07/31 07:02:55;;;;;;;4.30;2.08;;;;;;;19.19;64.21;99794.72;10323005;28;20124;-79
2023/07/31 07:07:57;;;;;;;3.58;2.15;;;;;;;19.30;63.90;99787.16;10319920;28;20076;-75
2023/07/31 07:12:59;;;;;;;5.97;2.00;;;;;;;19.35;63.22;99799.06;10343388;28;20050;-74
2023/07/31 07:18:01;;;;;;;5.55;2.15;;;;;;;19.24;63.28;99788.75;10350783;28;20119;-75
2023/07/31 07:23:02;;;;;;;3.75;2.30;;;;;;;19.31;63.50;99781.56;10329492;28;20191;-76
2023/07/31 07:28:04;;;;;;;6.72;2.72;;;;;;;19.38;63.45;99769.00;10327861;28;20109;-76
2023/07/31 07:33:05;;;;;;;3.58;2.08;;;;;;;19.58;63.10;99765.63;10379604;28;20070;-74
2023/07/31 07:38:07;;;;;;;4.65;2.20;;;;;;;19.81;62.42;99756.50;10329434;28;20059;-72
2023/07/31 07:43:08;;;;;;;3.50;2.08;;;;;;;19.93;62.05;99754.94;10330409;28;20054;-75
2023/07/31 07:48:10;;;;;;;5.60;2.97;;;;;;;19.88;62.30;99741.19;10335275;28;20054;-76
2023/07/31 07:53:11;;;;;;;5.97;1.90;;;;;;;19.91;62.25;99740.81;10323340;28;20058;-75
2023/07/31 07:58:13;;;;;;;5.75;1.92;;;;;;;20.04;62.56;99751.69;10329640;28;20135;-76
2023/07/31 08:03:14;;;;;;;3.00;1.77;;;;;;;20.07;62.54;99745.91;10331248;28;20122;-77
2023/07/31 08:08:16;;;;;;;3.83;1.50;;;;;;;20.14;62.54;99746.75;10329875;28;20057;-78
2023/07/31 08:13:18;;;;;;;4.78;1.98;;;;;;;20.19;62.18;99743.47;10329575;28;20053;-77
2023/07/31 08:18:19;;;;;;;4.70;2.90;;;;;;;20.18;62.32;99741.81;10329311;28;20041;-79
2023/07/31 08:23:21;;;;;;;2.53;1.58;;;;;;;20.14;62.56;99725.13;10328766;28;20092;-76
2023/07/31 08:28:22;;;;;;;5.20;2.30;;;;;;;20.07;62.65;99713.47;10330184;28;20045;-78
2023/07/31 08:33:24;;;;;;;3.95;1.50;;;;;;;20.29;63.02;99727.72;10328710;28;20108;-77
2023/07/31 08:38:26;;;;;;;4.22;2.25;;;;;;;20.46;62.38;99712.00;10324876;28;20168;-73
2023/07/31 08:43:27;;;;;;;5.13;2.20;;;;;;;20.44;62.03;99705.94;10322186;28;20045;-74
2023/07/31 08:48:30;;;;;;;5.82;1.67;;;;;;;20.49;62.22;99708.06;10320981;28;20318;-75
2023/07/31 08:53:31;;;;;;;3.00;2.00;;;;;;;20.66;61.19;99712.09;10324478;28;20065;-73
2023/07/31 08:58:35;;;;;;;5.85;2.15;;;;;;;20.70;60.65;99715.22;10312811;28;20053;-72
2023/07/31 09:03:39;;;;;;;4.28;2.13;;;;;;;20.68;60.77;99720.03;10314620;28;20057;-72
2023/07/31 09:08:42;;;;;;;2.10;1.48;;;;;;;20.69;61.53;99712.72;10314014;28;20053;-72
2023/07/31 09:13:43;;;;;;;5.38;1.92;;;;;;;20.76;60.79;99706.34;10317345;28;20045;-74
2023/07/31 09:18:56;;;;;;;5.35;2.15;;;;;;;20.93;60.85;99704.06;10318406;28;20445;-74
2023/07/31 09:23:58;;;;;;;6.13;2.30;;;;;;;21.09;60.30;99702.00;10319135;28;20104;-73
2023/07/31 09:29:01;;;;;;;5.47;1.90;;;;;;;21.25;60.49;99687.25;10316312;28;20648;-73
2023/07/31 09:34:02;;;;;;;3.40;1.95;;;;;;;21.37;59.40;99697.25;10329689;28;20053;-73
2023/07/31 09:39:04;;;;;;;3.63;1.92;;;;;;;21.27;59.05;99687.88;10315764;28;20062;-75
2023/07/31 09:44:05;;;;;;;5.40;1.85;;;;;;;21.24;58.34;99707.25;10318928;28;20505;-75
2023/07/31 09:49:11;;;;;;;3.95;2.13;;;;;;;21.16;60.40;99703.69;10326831;28;20476;-75
2023/07/31 09:54:16;;;;;;;3.70;2.00;;;;;;;20.95;63.57;99687.63;10329242;28;20065;-79
2023/07/31 09:59:19;;;;;;;3.60;2.00;;;;;;;21.00;64.01;99693.25;10321513;28;20107;-75
2023/07/31 10:04:27;;;;;;;4.20;2.17;;;;;;;21.03;63.01;99668.50;10320883;28;20050;-73
2023/07/31 10:09:31;;;;;;;3.38;2.03;;;;;;;21.06;60.74;99657.25;10314817;28;20052;-76
2023/07/31 10:14:33;;;;;;;4.95;1.85;;;;;;;21.26;60.49;99642.91;10323143;28;22811;-76
2023/07/31 10:19:36;;;;;;;7.07;2.08;;;;;;;21.37;58.81;99637.69;10364024;28;20053;-79
2023/07/31 10:24:38;;;;;;;4.53;2.58;;;;;;;21.49;57.72;99651.44;10359922;28;20065;-75
2023/07/31 10:29:41;;;;;;;4.28;2.08;;;;;;;21.50;58.04;99641.50;10343791;28;20061;-74
2023/07/31 10:34:43;;;;;;;;;;;;;;;21.49;56.45;99631.66;10334629;28;20049;-75
2023/07/31 10:40:02;;;;;;;7.40;2.53;;;;;;;21.50;55.83;99617.13;10332146;28;19976;-75
2023/07/31 10:45:06;;;;;;;4.32;2.00;;;;;;;21.59;55.14;99621.25;10335498;28;20054;-73
2023/07/31 10:50:12;;;;;;;6.32;2.30;;;;;;;21.61;55.34;99621.88;10343278;28;20057;-73
2023/07/31 10:55:32;;;;;;;6.85;2.17;;;;;;;21.65;55.16;99617.72;10346449;28;20057;-74
2023/07/31 11:00:36;;;;;;;5.35;2.15;;;;;;;21.80;55.30;99606.63;10337190;28;20050;-77
2023/07/31 11:05:50;;;;;;;4.03;2.50;;;;;;;21.87;54.62;99610.16;10329074;28;20476;-72
2023/07/31 11:11:03;;;;;;;5.93;2.10;;;;;;;21.98;54.48;99602.38;10334254;28;20076;-74
2023/07/31 11:16:04;;;;;;;;;;;;;;;22.00;54.78;99597.59;10330898;28;20057;-73
2023/07/31 11:21:06;;;;;;;8.15;2.85;;;;;;;22.02;54.65;99590.09;10333398;28;20011;-72
2023/07/31 11:26:08;;;;;;;5.13;1.80;;;;;;;22.05;54.38;99587.78;10333553;28;20042;-74
2023/07/31 11:31:10;;;;;;;3.97;1.90;;;;;;;22.02;54.51;99584.66;10335312;28;20050;-75
2023/07/31 11:36:20;;;;;;;2.85;1.75;;;;;;;22.14;53.99;99588.34;10333810;28;20060;-75
2023/07/31 11:41:21;;;;;;;4.20;2.00;;;;;;;22.17;53.64;99571.69;10332713;28;20057;-75
2023/07/31 11:46:24;;;;;;;4.15;2.17;;;;;;;22.18;54.10;99567.91;10349788;28;20050;-79
2023/07/31 11:51:26;;;;;;;4.10;2.00;;;;;;;22.07;53.91;99572.13;10351395;28;20046;-73
2023/07/31 11:56:28;;;;;;;5.43;2.50;;;;;;;22.12;54.33;99568.78;10327490;28;20212;-75
2023/07/31 12:01:30;;;;;;;4.30;1.60;;;;;;;22.15;53.08;99568.34;10331628;28;20053;-74
2023/07/31 12:06:36;;;;;;;3.97;2.00;;;;;;;22.15;52.82;99557.50;10328196;28;20065;-74
2023/07/31 12:11:45;;;;;;;4.68;2.40;;;;;;;22.24;53.07;99564.34;10323982;28;20057;-75
2023/07/31 12:16:46;;;;;;;3.17;2.10;;;;;;;22.29;52.57;99554.72;10324691;28;20779;-78
2023/07/31 12:21:49;;;;;;;2.80;1.98;;;;;;;22.32;53.38;99546.19;10323788;28;20444;-75
2023/07/31 12:26:52;;;;;;;5.27;2.43;;;;;;;22.28;53.96;99540.34;10325235;28;20136;-73
2023/07/31 12:31:53;;;;;;;4.13;2.37;;;;;;;22.23;53.54;99570.81;10328001;28;20288;-77
2023/07/31 12:36:55;;;;;;;2.70;2.20;;;;;;;22.16;53.94;99542.06;10320998;28;20518;-76
2023/07/31 12:41:56;;;;;;;3.17;2.33;;;;;;;22.11;53.95;99542.72;10323242;28;20204;-76
2023/07/31 12:46:58;;;;;;;5.53;2.40;;;;;;;22.12;53.75;99525.41;10319954;28;20050;-75
2023/07/31 12:51:59;;;;;;;5.43;3.17;;;;;;;22.16;54.15;99510.38;10319272;28;20522;-74
2023/07/31 12:57:00;;;;;;;4.43;2.67;;;;;;;22.19;53.98;99490.97;10319228;28;20108;-74
2023/07/31 13:02:02;;;;;;;3.55;2.20;;;;;;;22.49;53.25;99481.41;10317287;28;20058;-74
2023/07/31 13:07:04;;;;;;;5.63;2.20;;;;;;;22.84;52.29;99473.59;10336750;28;20054;-75
2023/07/31 13:12:05;;;;;;;4.15;1.92;;;;;;;23.12;51.56;99458.78;10383939;28;20176;-74
2023/07/31 13:17:07;;;;;;;4.78;2.17;;;;;;;23.25;52.08;99469.44;10335463;28;20073;-76
2023/07/31 13:22:09;;;;;;;3.53;2.03;;;;;;;23.12;52.83;99475.88;10324637;28;20587;-75
2023/07/31 13:27:10;;;;;;;2.70;1.85;;;;;;;23.07;51.71;99464.00;10323699;28;20045;-77
2023/07/31 13:32:11;;;;;;;4.30;2.00;;;;;;;22.98;51.17;99484.34;10322275;28;20081;-74
2023/07/31 13:37:14;;;;;;;4.55;2.20;;;;;;;22.97;51.71;99466.38;10321742;28;21283;-77
2023/07/31 13:42:16;;;;;;;3.43;2.00;;;;;;;22.99;51.64;99464.31;10323283;28;20129;-74
2023/07/31 13:47:17;;;;;;;8.43;3.45;;;;;;;23.07;51.64;99466.72;10322899;28;20381;-75
2023/07/31 13:52:19;;;;;;;4.18;2.50;;;;;;;23.06;52.01;99467.75;10324715;28;20073;-75
2023/07/31 13:57:20;;;;;;;4.65;2.17;;;;;;;23.01;51.83;99470.31;10325200;28;20053;-73
2023/07/31 14:02:21;;;;;;;3.72;2.00;;;;;;;22.85;51.92;99459.00;10318657;28;20073;-74
2023/07/31 14:07:23;;;;;;;3.70;1.90;;;;;;;22.86;52.50;99471.50;10321315;28;20110;-77
2023/07/31 14:12:25;;;;;;;5.18;2.42;;;;;;;22.81;52.93;99457.78;10337105;28;20058;-71
2023/07/31 14:17:32;;;;;;;3.72;2.05;;;;;;;22.69;52.97;99459.56;10337511;28;20048;-73
2023/07/31 14:22:34;;;;;;;5.05;1.83;;;;;;;22.60;53.06;99451.69;10343994;28;20057;-74
2023/07/31 14:27:36;;;;;;;3.25;2.13;;;;;;;22.55;53.61;99445.31;10359839;28;20050;-73
2023/07/31 14:32:37;;;;;;;3.58;2.10;;;;;;;22.53;53.51;99461.78;10355453;28;20046;-75
2023/07/31 14:37:40;;;;;;;4.60;1.98;;;;;;;22.45;53.46;99443.06;10347314;28;20400;-75
2023/07/31 14:42:42;;;;;;;5.78;2.20;;;;;;;22.45;54.00;99443.06;10347297;28;20058;-72
2023/07/31 14:47:43;;;;;;;3.92;1.83;;;;;;;22.48;54.10;99431.78;10346131;28;20065;-74
2023/07/31 14:52:45;;;;;;;4.60;2.33;;;;;;;22.57;54.24;99424.19;10348888;28;20057;-73
2023/07/31 14:57:47;;;;;;;5.80;2.90;;;;;;;22.67;54.18;99423.69;10349729;28;20104;-75
2023/07/31 15:02:49;;;;;;;4.57;2.55;;;;;;;22.66;54.36;99416.63;10344575;28;20050;-72
2023/07/31 15:07:50;;;;;;;4.45;2.30;;;;;;;22.58;54.28;99429.41;10353474;28;20113;-72
2023/07/31 15:12:53;;;;;;;5.65;2.08;;;;;;;22.49;54.43;99422.59;10351511;28;20070;-73
2023/07/31 15:17:55;;;;;;;6.43;2.83;;;;;;;22.44;54.30;99430.56;10347064;28;20275;-73
2023/07/31 15:22:56;;;;;;;3.75;1.98;;;;;;;22.35;55.19;99443.59;10346297;28;20049;-72
2023/07/31 15:27:58;;;;;;;3.85;1.70;;;;;;;22.31;55.11;99436.06;10349491;28;20050;-74
2023/07/31 15:33:00;;;;;;;6.28;1.70;;;;;;;22.25;54.76;99435.06;10346296;28;20058;-73
2023/07/31 15:38:01;;;;;;;3.22;1.50;;;;;;;22.23;54.79;99438.00;10351071;28;20136;-73
2023/07/31 15:43:04;;;;;;;4.00;1.65;;;;;;;22.21;54.66;99428.44;10349873;28;20054;-74
2023/07/31 15:48:05;;;;;;;2.37;1.40;;;;;;;22.16;54.58;99431.78;10344619;28;20103;-72
2023/07/31 15:53:07;;;;;;;3.67;1.50;;;;;;;22.17;54.70;99438.88;10349708;28;20050;-75
2023/07/31 15:58:08;;;;;;;2.13;1.33;;;;;;;22.16;54.86;99433.66;10365492;28;20053;-74
2023/07/31 16:03:09;;;;;;;3.38;1.35;;;;;;;22.07;54.49;99446.66;10356536;28;20061;-77
2023/07/31 16:08:11;;;;;;;6.03;1.25;;;;;;;21.93;54.38;99440.47;10388932;28;20091;-74
2023/07/31 16:13:12;;;;;;;2.08;1.20;;;;;;;21.82;54.82;99442.00;10349582;28;20672;-73
2023/07/31 16:18:14;;;;;;;1.48;0.90;;;;;;;21.77;54.52;99441.84;10341206;28;20057;-72
2023/07/31 16:23:15;;;;;;;1.48;0.80;;;;;;;21.76;54.34;99445.59;10341508;28;20054;-76
2023/07/31 16:28:16;;;;;;;3.90;1.27;;;;;;;21.83;55.67;99429.31;10331452;28;20054;-71
2023/07/31 16:33:18;;;;;;;1.92;0.82;;;;;;;21.84;55.15;99423.69;10333967;28;20057;-73
2023/07/31 16:38:19;;;;;;;1.95;1.05;;;;;;;21.82;55.19;99414.09;10335238;28;20076;-73
2023/07/31 16:43:21;;;;;;;2.30;1.08;;;;;;;21.83;55.93;99419.28;10336617;28;20062;-74
2023/07/31 16:48:22;;;;;;;2.85;1.08;;;;;;;21.83;55.42;99392.22;10334458;28;20683;-75
2023/07/31 16:53:24;;;;;;;2.75;1.23;;;;;;;21.85;55.06;99378.44;10333501;28;20170;-74
2023/07/31 16:58:25;;;;;;;2.38;1.10;;;;;;;21.84;56.55;99366.78;10335763;28;20080;-73
2023/07/31 17:03:26;;;;;;;6.60;5.70;;;;;;;21.80;56.12;99375.53;10334623;28;20510;-72
2023/07/31 17:08:28;;;;;;;4.18;3.85;;;;;;;21.75;56.71;99365.38;10333703;28;20080;-76
2023/07/31 17:13:30;;;;;;;5.18;3.13;;;;;;;21.72;56.90;99373.94;10332283;28;20676;-74
2023/07/31 17:18:31;;;;;;;3.80;1.88;;;;;;;21.66;57.78;99374.81;10332160;28;20045;-73
2023/07/31 17:23:32;;;;;;;3.22;1.58;;;;;;;21.58;58.90;99362.34;10329099;28;21012;-73
2023/07/31 17:28:34;;;;;;;5.28;1.60;;;;;;;21.36;62.78;99362.66;10328544;28;20061;-73
2023/07/31 17:33:35;;;;;;;4.03;1.85;;;;;;;21.20;64.16;99344.22;10331868;28;20081;-76
2023/07/31 17:38:37;;;;;;;3.45;2.22;;;;;;;21.14;64.93;99362.13;10332247;28;20496;-73
2023/07/31 17:43:38;;;;;;;3.63;2.20;;;;;;;21.05;66.92;99363.41;10329567;28;20496;-72
2023/07/31 17:48:41;;;;;;;4.07;2.30;;;;;;;21.00;68.96;99365.91;10332623;28;20046;-74
2023/07/31 17:53:44;;;;;;;3.90;2.38;;;;;;;20.91;69.90;99351.81;10336810;28;20523;-74
2023/07/31 17:58:45;;;;;;;3.72;2.38;;;;;;;20.79;69.14;99332.72;10330984;28;20502;-71
2023/07/31 18:03:47;;;;;;;4.28;2.40;;;;;;;20.78;70.33;99336.44;10331704;28;20516;-74
2023/07/31 18:08:48;;;;;;;4.18;3.00;;;;;;;20.76;71.38;99321.47;10332794;28;20111;-72
2023/07/31 18:13:50;;;;;;;3.17;2.45;;;;;;;20.80;71.23;99311.91;10329232;28;20324;-72
2023/07/31 18:18:51;;;;;;;10.10;4.88;;;;;;;20.71;71.54;99319.41;10332119;28;20138;-74
2023/07/31 18:23:52;;;;;;;8.77;4.18;;;;;;;20.64;72.20;99308.59;10336379;28;20057;-70
2023/07/31 18:28:57;;;;;;;3.05;2.38;;;;;;;20.60;72.31;99317.34;10330581;28;20053;-73
2023/07/31 18:33:59;;;;;;;5.13;2.45;;;;;;;20.58;72.60;99324.81;10333324;28;20172;-72
2023/07/31 18:39:00;;;;;;;4.43;2.70;;;;;;;20.60;71.69;99322.75;10329234;28;20065;-75
2023/07/31 18:44:02;;;;;;;3.03;2.42;;;;;;;20.61;72.48;99317.13;10329981;28;20050;-73
2023/07/31 18:49:04;;;;;;;3.58;2.30;;;;;;;20.61;71.97;99311.72;10332938;28;20137;-73
2023/07/31 18:54:05;;;;;;;5.25;2.95;;;;;;;20.63;72.46;99292.59;10333028;28;20061;-75
2023/07/31 18:59:07;;;;;;;3.08;1.80;;;;;;;20.60;72.26;99287.59;10331253;28;20157;-73
2023/07/31 19:04:08;;;;;;;5.05;2.00;;;;;;;20.59;72.55;99277.81;10328986;28;20045;-73
2023/07/31 19:09:12;;;;;;;3.78;2.10;;;;;;;20.64;72.12;99286.13;10334372;28;20077;-75
2023/07/31 19:14:13;;;;;;;;;;;;;;;20.64;73.52;99297.78;10342602;28;20412;-72
2023/07/31 19:19:15;;;;;;;4.63;2.17;;;;;;;20.64;73.08;99305.03;10339860;28;19937;-74
2023/07/31 19:24:16;;;;;;;3.50;1.85;;;;;;;20.52;73.92;99290.53;10332643;28;20057;-76
2023/07/31 19:29:17;;;;;;;5.30;2.35;;;;;;;20.43;74.44;99296.16;10340229;28;20602;-73
2023/07/31 19:34:19;;;;;;;5.85;2.85;;;;;;;20.38;74.61;99285.16;10338116;28;20144;-76
2023/07/31 19:39:21;;;;;;;3.30;2.58;;;;;;;20.37;75.24;99297.03;10337696;28;20131;-77
2023/07/31 19:44:23;;;;;;;4.03;2.47;;;;;;;20.31;75.22;99298.69;10333451;28;20124;-70
2023/07/31 19:49:27;;;;;;;5.05;2.50;;;;;;;20.30;76.02;99296.19;10337143;28;20563;-68
2023/07/31 19:54:28;;;;;;;5.03;2.60;;;;;;;20.26;76.21;99284.13;10335991;28;20049;-72
2023/07/31 19:59:29;;;;;;;3.40;2.60;;;;;;;20.23;75.25;99263.75;10348261;28;20060;-76
2023/07/31 20:04:31;;;;;;;3.75;2.38;;;;;;;20.20;75.74;99249.84;10338600;28;20114;-70
2023/07/31 20:09:32;;;;;;;4.65;2.70;;;;;;;20.19;75.90;99234.69;10336482;28;20050;-73
2023/07/31 20:14:34;;;;;;;5.55;2.50;;;;;;;20.04;75.98;99233.06;10336968;28;20046;-73
2023/07/31 20:19:36;;;;;;;4.32;1.80;;;;;;;20.04;76.18;99226.81;10336002;28;20520;-73
2023/07/31 20:24:37;;;;;;;4.60;2.22;;;;;;;19.97;76.47;99216.03;10334713;28;20052;-72
2023/07/31 20:29:40;;;;;;;3.88;2.25;;;;;;;19.95;76.35;99218.09;10333872;28;20073;-72
2023/07/31 20:34:41;;;;;;;4.80;2.55;;;;;;;19.97;76.89;99221.44;10335611;28;20057;-72
2023/07/31 20:39:42;;;;;;;3.63;2.03;;;;;;;19.89;78.40;99213.53;10341579;28;20125;-74
2023/07/31 20:44:44;;;;;;;4.22;2.28;;;;;;;19.78;79.67;99217.69;10345464;28;20072;-72
2023/07/31 20:49:45;;;;;;;4.80;2.40;;;;;;;19.69;80.08;99219.75;10334623;28;20069;-74
2023/07/31 20:54:48;;;;;;;2.90;2.47;;;;;;;19.57;81.49;99205.22;10332377;28;20125;-74
2023/07/31 20:59:49;;;;;;;4.13;2.30;;;;;;;19.61;83.19;99206.47;10333237;28;20073;-71
2023/07/31 21:04:51;;;;;;;5.03;2.35;;;;;;;19.47;83.38;99196.72;10333022;28;20991;-75
2023/07/31 21:09:52;;;;;;;3.92;2.80;;;;;;;19.39;86.03;99197.75;10335780;28;20424;-75
2023/07/31 21:14:54;;;;;;;4.47;2.60;;;;;;;19.30;88.57;99194.41;10333603;28;20504;-75
2023/07/31 21:19:55;;;;;;;3.15;2.63;;;;;;;19.20;89.43;99180.50;10331092;28;20472;-73
2023/07/31 21:24:57;;;;;;;4.55;3.08;;;;;;;19.19;91.05;99168.88;10328817;28;20397;-74
2023/07/31 21:29:59;;;;;;;4.95;3.20;;;;;;;19.11;91.71;99162.84;10328776;28;20559;-75
2023/07/31 21:35:01;;;;;;;6.53;3.85;;;;;;;19.06;92.55;99142.72;10327513;28;20097;-76
2023/07/31 21:40:02;;;;;;;6.40;2.83;;;;;;;19.02;93.58;99135.25;10330999;28;20207;-73
2023/07/31 21:45:05;;;;;;;4.00;3.05;;;;;;;19.02;94.38;99117.22;10333959;28;20587;-72
2023/07/31 21:50:08;;;;;;;4.88;3.80;;;;;;;18.99;94.02;99114.09;10332515;28;20065;-76
2023/07/31 21:55:10;;;;;;;5.53;2.83;;;;;;;18.96;94.81;99106.41;10330273;28;20058;-74
2023/07/31 22:00:12;;;;;;;4.82;2.72;;;;;;;18.96;95.22;99093.78;10325617;28;20053;-71
2023/07/31 22:05:14;;;;;;;3.35;2.60;;;;;;;18.89;94.60;99085.66;10328232;28;20054;-76
2023/07/31 22:10:15;;;;;;;5.22;2.90;;;;;;;18.81;96.06;99075.06;10327119;28;20582;-72
2023/07/31 22:15:16;;;;;;;4.90;3.30;;;;;;;18.78;96.96;99069.25;10325692;28;20054;-73
2023/07/31 22:20:18;;;;;;;3.20;2.58;;;;;;;18.76;97.05;99068.63;10329384;28;20054;-73
2023/07/31 22:25:20;;;;;;;4.90;2.97;;;;;;;18.68;98.62;99064.28;10328832;28;20068;-71
2023/07/31 22:30:21;;;;;;;4.53;3.13;;;;;;;18.59;100.00;99055.53;10328634;28;20053;-73
2023/07/31 22:35:23;;;;;;;6.55;3.60;;;;;;;18.54;100.00;99047.25;10328600;28;20559;-78
2023/07/31 22:40:25;;;;;;;5.50;3.40;;;;;;;18.49;100.00;99042.44;10328572;28;20112;-72
2023/07/31 22:45:26;;;;;;;4.75;3.33;;;;;;;18.54;100.00;99031.91;10334150;28;20767;-72
2023/07/31 22:50:28;;;;;;;6.03;3.47;;;;;;;18.55;100.00;99027.34;10337465;28;20060;-71
2023/07/31 22:55:30;;;;;;;4.30;2.85;;;;;;;18.55;100.00;99020.09;10338453;28;20592;-73
2023/07/31 23:00:31;;;;;;;3.53;2.85;;;;;;;18.52;100.00;98998.09;10337264;28;20500;-75
2023/07/31 23:05:33;;;;;;;4.95;3.13;;;;;;;18.47;100.00;98997.91;10335781;28;20041;-73
2023/07/31 23:10:36;;;;;;;6.78;3.22;;;;;;;18.47;100.00;98984.44;10330469;28;20053;-76
2023/07/31 23:15:37;;;;;;;3.73;3.13;;;;;;;18.41;100.00;98975.31;10334399;28;20503;-77
2023/07/31 23:20:38;;;;;;;4.75;2.92;;;;;;;18.42;100.00;98970.75;10335357;28;20245;-72
2023/07/31 23:25:40;;;;;;;5.20;3.08;;;;;;;18.49;100.00;98971.59;10333216;28;20047;-74
2023/07/31 23:30:41;;;;;;;4.20;3.08;;;;;;;18.37;100.00;98966.81;10332618;28;20046;-76